createdAt,value
2022-12-23T00:00:44.204Z,35.75
2022-12-23T00:03:10.625Z,35.54
2022-12-23T00:05:38.126Z,35.37
2022-12-23T00:08:04.769Z,35.51
2022-12-23T00:10:31.073Z,35.30
2022-12-23T00:12:57.414Z,35.75
2022-12-23T00:15:23.826Z,35.67
2022-12-23T00:17:50.128Z,35.59
2022-12-23T00:20:16.490Z,35.69
2022-12-23T00:22:42.842Z,35.40
2022-12-23T00:25:09.168Z,35.47
2022-12-23T00:27:37.632Z,35.78
2022-12-23T00:30:04.268Z,35.76
2022-12-23T00:32:30.607Z,35.37
2022-12-23T00:34:56.922Z,35.36
2022-12-23T00:37:23.327Z,35.63
2022-12-23T00:39:54.789Z,35.72
2022-12-23T00:42:21.511Z,35.70
2022-12-23T00:44:47.889Z,35.51
2022-12-23T00:47:14.239Z,35.71
2022-12-23T00:49:40.529Z,35.85
2022-12-23T00:52:06.887Z,35.72
2022-12-23T00:54:33.242Z,35.51
2022-12-23T00:56:59.565Z,35.42
2022-12-23T00:59:26.357Z,35.65
2022-12-23T01:01:52.883Z,35.79
2022-12-23T01:04:19.286Z,35.41
2022-12-23T01:06:45.649Z,35.74
2022-12-23T01:09:12.010Z,35.89
2022-12-23T01:11:38.316Z,35.40
2022-12-23T01:14:04.687Z,35.64
2022-12-23T01:16:31.055Z,35.74
2022-12-23T01:18:57.557Z,35.38
2022-12-23T01:21:23.959Z,35.57
2022-12-23T01:23:50.250Z,35.35
2022-12-23T01:26:16.717Z,35.46
2022-12-23T01:28:43.183Z,35.40
2022-12-23T01:31:09.584Z,35.63
2022-12-23T01:33:35.878Z,35.50
2022-12-23T01:36:02.250Z,35.63
2022-12-23T01:38:28.597Z,35.95
2022-12-23T01:40:54.926Z,35.79
2022-12-23T01:43:21.309Z,35.51
2022-12-23T01:45:47.687Z,35.89
2022-12-23T01:48:14.056Z,35.82
2022-12-23T01:50:40.466Z,35.73
2022-12-23T01:53:08.384Z,35.61
2022-12-23T01:55:35.025Z,35.62
2022-12-23T01:58:01.436Z,35.39
2022-12-23T02:00:27.763Z,35.65
2022-12-23T02:02:54.190Z,35.67
2022-12-23T02:05:20.643Z,35.51
2022-12-23T02:07:46.971Z,35.57
2022-12-23T02:10:13.318Z,35.53
2022-12-23T02:12:39.838Z,35.68
2022-12-23T02:15:06.177Z,35.34
2022-12-23T02:17:32.505Z,35.53
2022-12-23T02:19:58.947Z,35.23
2022-12-23T02:22:25.307Z,35.70
2022-12-23T02:24:51.732Z,35.80
2022-12-23T02:27:18.130Z,35.90
2022-12-23T02:29:44.491Z,35.57
2022-12-23T02:32:10.899Z,35.64
2022-12-23T02:34:37.348Z,35.62
2022-12-23T02:37:03.760Z,35.95
2022-12-23T02:39:30.079Z,35.88
2022-12-23T02:41:56.437Z,35.99
2022-12-23T02:44:22.877Z,35.73
2022-12-23T02:46:49.315Z,35.74
2022-12-23T02:49:15.743Z,35.47
2022-12-23T02:51:42.097Z,35.96
2022-12-23T02:54:08.514Z,35.60
2022-12-23T02:56:34.827Z,35.60
2022-12-23T02:59:01.293Z,35.80
2022-12-23T03:01:27.707Z,35.94
2022-12-23T03:03:54.449Z,35.76
2022-12-23T03:06:20.883Z,35.89
2022-12-23T03:08:47.211Z,36.01
2022-12-23T03:11:13.626Z,36.09
2022-12-23T03:13:39.982Z,35.98
2022-12-23T03:16:06.314Z,36.00
2022-12-23T03:18:32.710Z,36.00
2022-12-23T03:20:59.029Z,35.56
2022-12-23T03:23:25.352Z,35.64
2022-12-23T03:25:51.685Z,36.14
2022-12-23T03:28:18.052Z,36.16
2022-12-23T03:30:44.359Z,35.82
2022-12-23T03:33:10.754Z,35.91
2022-12-23T03:35:37.100Z,36.07
2022-12-23T03:38:03.441Z,36.01
2022-12-23T03:40:29.806Z,36.00
2022-12-23T03:42:56.212Z,35.72
2022-12-23T03:45:39.740Z,35.64
2022-12-23T03:48:07.400Z,35.69
2022-12-23T03:50:33.749Z,35.88
2022-12-23T03:53:00.216Z,35.68
2022-12-23T03:55:26.591Z,35.91
2022-12-23T03:57:52.919Z,35.88
2022-12-23T04:00:19.363Z,36.00
2022-12-23T04:02:45.838Z,36.04
2022-12-23T04:05:12.294Z,35.93
2022-12-23T04:07:38.668Z,36.28
2022-12-23T04:10:05.123Z,36.02
2022-12-23T04:12:51.455Z,35.93
2022-12-23T04:15:28.790Z,36.15
2022-12-23T04:18:07.617Z,36.44
2022-12-23T04:20:46.491Z,36.10
2022-12-23T04:23:12.883Z,36.36
2022-12-23T04:25:39.298Z,36.29
2022-12-23T04:28:05.621Z,35.93
2022-12-23T04:30:34.702Z,36.24
2022-12-23T04:33:01.385Z,36.16
2022-12-23T04:35:27.737Z,36.15
2022-12-23T04:37:54.041Z,36.28
2022-12-23T04:40:20.370Z,36.00
2022-12-23T04:42:46.706Z,36.12
2022-12-23T04:45:13.009Z,36.27
2022-12-23T04:47:39.449Z,35.99
2022-12-23T04:50:05.859Z,36.37
2022-12-23T04:52:32.204Z,35.98
2022-12-23T04:54:58.723Z,36.11
2022-12-23T04:57:25.071Z,36.09
2022-12-23T04:59:51.392Z,36.21
2022-12-23T05:02:18.040Z,35.91
2022-12-23T05:04:44.485Z,36.30
2022-12-23T05:07:10.880Z,36.07
2022-12-23T05:09:37.256Z,36.01
2022-12-23T05:12:03.592Z,35.93
2022-12-23T05:14:29.888Z,36.00
2022-12-23T05:16:59.532Z,36.02
2022-12-23T05:19:28.534Z,36.32
2022-12-23T05:21:54.851Z,36.51
2022-12-23T05:24:21.258Z,36.56
2022-12-23T05:26:48.086Z,36.49
2022-12-23T05:29:15.056Z,36.15
2022-12-23T05:31:41.481Z,36.32
2022-12-23T05:34:07.907Z,36.35
2022-12-23T05:36:34.269Z,36.36
2022-12-23T05:39:00.728Z,36.51
2022-12-23T05:41:27.109Z,36.14
2022-12-23T05:43:53.442Z,35.95
2022-12-23T05:46:25.984Z,35.95
2022-12-23T05:48:53.054Z,36.17
2022-12-23T05:51:19.448Z,35.84
2022-12-23T05:53:45.753Z,36.25
2022-12-23T05:56:12.083Z,36.22
2022-12-23T05:58:38.499Z,36.44
2022-12-23T06:01:04.824Z,36.53
2022-12-23T06:03:31.385Z,36.27
2022-12-23T06:05:57.938Z,36.30
2022-12-23T06:08:24.260Z,36.12
2022-12-23T06:10:50.611Z,36.32
2022-12-23T06:13:16.957Z,36.11
2022-12-23T06:15:43.251Z,36.00
2022-12-23T06:18:09.556Z,36.27
2022-12-23T06:20:35.975Z,36.02
2022-12-23T06:23:02.322Z,36.03
2022-12-23T06:25:28.631Z,36.09
2022-12-23T06:27:55.050Z,35.92
2022-12-23T06:30:21.381Z,36.21
2022-12-23T06:32:47.692Z,36.25
2022-12-23T06:35:14.056Z,36.64
2022-12-23T06:37:40.400Z,36.41
2022-12-23T06:40:06.730Z,36.28
2022-12-23T06:42:33.074Z,36.39
2022-12-23T06:44:59.445Z,35.95
2022-12-23T06:47:25.775Z,36.21
2022-12-23T06:49:52.187Z,36.10
2022-12-23T06:52:18.527Z,35.89
2022-12-23T06:54:44.848Z,35.86
2022-12-23T06:57:11.218Z,35.77
2022-12-23T06:59:37.573Z,36.19
2022-12-23T07:02:04.122Z,36.34
2022-12-23T07:04:30.638Z,36.03
2022-12-23T07:06:56.963Z,35.81
2022-12-23T07:09:23.513Z,36.28
2022-12-23T07:11:49.832Z,35.84
2022-12-23T07:14:16.189Z,36.12
2022-12-23T07:16:42.633Z,36.18
2022-12-23T07:19:09.486Z,35.94
2022-12-23T07:21:37.074Z,35.96
2022-12-23T07:24:03.519Z,35.72
2022-12-23T07:26:30.034Z,35.91
2022-12-23T07:28:56.476Z,35.90
2022-12-23T07:31:23.090Z,35.87
2022-12-23T07:33:49.552Z,35.47
2022-12-23T07:36:15.994Z,35.87
2022-12-23T07:38:42.401Z,35.89
2022-12-23T07:41:08.803Z,35.83
2022-12-23T07:43:35.186Z,35.78
2022-12-23T07:46:01.846Z,35.96
2022-12-23T07:48:28.287Z,35.78
2022-12-23T07:50:54.670Z,35.74
2022-12-23T07:53:21.205Z,36.08
2022-12-23T07:55:52.986Z,35.64
2022-12-23T07:58:23.733Z,35.99
2022-12-23T08:00:50.407Z,35.70
2022-12-23T08:03:16.897Z,36.03
2022-12-23T08:05:44.705Z,36.05
2022-12-23T08:08:11.089Z,35.78
2022-12-23T08:10:40.307Z,35.86
2022-12-23T08:13:11.250Z,36.08
2022-12-23T08:15:37.631Z,36.08
2022-12-23T08:18:04.103Z,35.98
2022-12-23T08:20:31.547Z,35.99
2022-12-23T08:22:57.897Z,36.12
2022-12-23T08:25:24.534Z,36.27
2022-12-23T08:27:50.981Z,36.18
2022-12-23T08:30:17.517Z,35.73
2022-12-23T08:32:46.579Z,35.80
2022-12-23T08:35:13.041Z,35.58
2022-12-23T08:37:39.532Z,35.62
2022-12-23T08:40:05.932Z,35.38
2022-12-23T08:42:32.350Z,35.55
2022-12-23T08:44:58.883Z,35.46
2022-12-23T08:47:25.274Z,35.61
2022-12-23T08:49:51.804Z,35.66
2022-12-23T08:52:19.450Z,35.66
2022-12-23T08:54:45.878Z,35.79
2022-12-23T08:57:12.798Z,35.98
2022-12-23T08:59:39.190Z,35.51
2022-12-23T09:02:05.654Z,35.66
2022-12-23T09:04:32.284Z,35.31
2022-12-23T09:06:58.696Z,35.36
2022-12-23T09:09:25.177Z,35.60
2022-12-23T09:11:52.082Z,35.68
2022-12-23T09:14:18.459Z,35.67
2022-12-23T09:16:44.874Z,35.80
2022-12-23T09:19:11.317Z,35.76
2022-12-23T09:21:37.810Z,35.55
2022-12-23T09:24:04.206Z,39.65
2022-12-23T09:26:30.615Z,44.87
2022-12-23T09:28:57.204Z,45.54
2022-12-23T09:31:23.984Z,46.33
2022-12-23T09:33:50.791Z,47.96
2022-12-23T09:36:17.262Z,51.08
2022-12-23T09:38:43.660Z,53.06
2022-12-23T09:41:10.183Z,53.39
2022-12-23T09:43:36.515Z,53.28
2022-12-23T09:46:02.944Z,55.27
2022-12-23T09:48:29.802Z,55.79
2022-12-23T09:50:56.337Z,52.82
2022-12-23T09:53:22.684Z,52.01
2022-12-23T09:55:49.206Z,52.02
2022-12-23T09:58:18.806Z,53.09
2022-12-23T10:00:46.353Z,52.92
2022-12-23T10:03:16.081Z,53.89
2022-12-23T10:05:42.795Z,54.30
2022-12-23T10:08:09.177Z,54.90
2022-12-23T10:10:35.717Z,52.85
2022-12-23T10:13:02.091Z,53.52
2022-12-23T10:15:28.651Z,55.23
